Jonesburg, Louisiana
Current Conditions -  °F | °C
As of 3:53 AM on Thursday 27 Nov 2014 (Local Time) from KMLU Reporting Station
Clear Clear  
Wind Chill: 38°   Ceiling: Unl
Heat Index: 44°   Visibility: 10mi
Dew Point: 32°   Wind: 12mph
Humidity: 63%   Direction: 350°N
Pressure: 30.4"   Gusts: NA
Location:  32.4475°N, 91.7992°W
Report Text: KMLU 270953Z AUTO 35010KT 10SM CLR 07/00 A3040 RMK AO2 SLP292 T00670000
Loading
Personal Weather Stations






























Interactive Weather Map New forecast layout! Learn more

10-Day Weather Forecast

Advertisements
Track Severe Weather on mobile